sensor_id;sensor_type;location;lat;lon;timestamp;P1;durP1;ratioP1;P2;durP2;ratioP2
54241;SDS011;40156;51.080;17.082;2022-08-03T00:01:38;7.50;;;4.43;;
54241;SDS011;40156;51.080;17.082;2022-08-03T00:04:06;7.15;;;3.95;;
54241;SDS011;40156;51.080;17.082;2022-08-03T00:06:34;5.80;;;4.47;;
54241;SDS011;40156;51.080;17.082;2022-08-03T00:09:04;7.40;;;4.47;;
54241;SDS011;40156;51.080;17.082;2022-08-03T00:11:32;5.28;;;3.97;;
54241;SDS011;40156;51.080;17.082;2022-08-03T00:14:00;4.95;;;3.88;;
54241;SDS011;40156;51.080;17.082;2022-08-03T00:16:27;5.80;;;4.53;;
54241;SDS011;40156;51.080;17.082;2022-08-03T00:18:54;6.82;;;4.53;;
54241;SDS011;40156;51.080;17.082;2022-08-03T00:21:22;8.45;;;4.72;;
54241;SDS011;40156;51.080;17.082;2022-08-03T00:23:49;7.68;;;5.15;;
54241;SDS011;40156;51.080;17.082;2022-08-03T00:26:19;6.18;;;4.30;;
54241;SDS011;40156;51.080;17.082;2022-08-03T00:28:47;9.10;;;4.72;;
54241;SDS011;40156;51.080;17.082;2022-08-03T00:31:15;6.38;;;4.97;;
54241;SDS011;40156;51.080;17.082;2022-08-03T00:33:49;7.50;;;4.88;;
54241;SDS011;40156;51.080;17.082;2022-08-03T00:36:29;8.32;;;5.68;;
54241;SDS011;40156;51.080;17.082;2022-08-03T00:38:56;7.32;;;4.68;;
54241;SDS011;40156;51.080;17.082;2022-08-03T00:41:24;9.38;;;4.93;;
54241;SDS011;40156;51.080;17.082;2022-08-03T00:44:01;6.43;;;4.60;;
54241;SDS011;40156;51.080;17.082;2022-08-03T00:46:29;8.32;;;5.28;;
54241;SDS011;40156;51.080;17.082;2022-08-03T00:48:56;7.57;;;4.70;;
54241;SDS011;40156;51.080;17.082;2022-08-03T00:51:23;8.77;;;4.72;;
54241;SDS011;40156;51.080;17.082;2022-08-03T00:53:51;8.05;;;4.55;;
54241;SDS011;40156;51.080;17.082;2022-08-03T00:56:26;7.72;;;4.30;;
54241;SDS011;40156;51.080;17.082;2022-08-03T00:58:54;4.78;;;3.97;;
54241;SDS011;40156;51.080;17.082;2022-08-03T01:01:32;6.03;;;4.32;;
54241;SDS011;40156;51.080;17.082;2022-08-03T01:06:51;5.78;;;4.47;;
54241;SDS011;40156;51.080;17.082;2022-08-03T01:12:13;6.28;;;4.20;;
54241;SDS011;40156;51.080;17.082;2022-08-03T01:20:13;5.30;;;4.10;;
54241;SDS011;40156;51.080;17.082;2022-08-03T01:25:23;5.10;;;4.22;;
54241;SDS011;40156;51.080;17.082;2022-08-03T01:28:01;5.70;;;4.53;;
54241;SDS011;40156;51.080;17.082;2022-08-03T01:30:37;5.60;;;4.13;;
54241;SDS011;40156;51.080;17.082;2022-08-03T01:33:09;6.38;;;4.38;;
54241;SDS011;40156;51.080;17.082;2022-08-03T01:35:49;6.20;;;4.35;;
54241;SDS011;40156;51.080;17.082;2022-08-03T01:38:19;6.25;;;4.60;;
54241;SDS011;40156;51.080;17.082;2022-08-03T01:43:26;6.15;;;4.78;;
54241;SDS011;40156;51.080;17.082;2022-08-03T01:46:17;6.32;;;4.90;;
54241;SDS011;40156;51.080;17.082;2022-08-03T01:48:45;6.40;;;4.30;;
54241;SDS011;40156;51.080;17.082;2022-08-03T01:51:14;6.63;;;4.70;;
54241;SDS011;40156;51.080;17.082;2022-08-03T01:53:42;8.32;;;5.03;;
54241;SDS011;40156;51.080;17.082;2022-08-03T01:56:10;8.63;;;5.00;;
54241;SDS011;40156;51.080;17.082;2022-08-03T01:58:38;6.70;;;4.97;;
54241;SDS011;40156;51.080;17.082;2022-08-03T02:01:06;5.57;;;4.35;;
54241;SDS011;40156;51.080;17.082;2022-08-03T02:03:37;8.52;;;5.13;;
54241;SDS011;40156;51.080;17.082;2022-08-03T02:09:24;7.93;;;5.05;;
54241;SDS011;40156;51.080;17.082;2022-08-03T02:12:11;6.70;;;4.65;;
54241;SDS011;40156;51.080;17.082;2022-08-03T02:17:20;6.90;;;4.47;;
54241;SDS011;40156;51.080;17.082;2022-08-03T02:20:06;8.65;;;5.32;;
54241;SDS011;40156;51.080;17.082;2022-08-03T02:22:34;7.60;;;5.60;;
54241;SDS011;40156;51.080;17.082;2022-08-03T02:25:06;7.30;;;5.22;;
54241;SDS011;40156;51.080;17.082;2022-08-03T02:27:34;9.00;;;6.18;;
54241;SDS011;40156;51.080;17.082;2022-08-03T02:30:13;6.75;;;5.18;;
54241;SDS011;40156;51.080;17.082;2022-08-03T02:32:42;6.97;;;5.28;;
54241;SDS011;40156;51.080;17.082;2022-08-03T02:35:19;8.38;;;5.47;;
54241;SDS011;40156;51.080;17.082;2022-08-03T02:37:51;7.13;;;5.45;;
54241;SDS011;40156;51.080;17.082;2022-08-03T02:40:19;9.50;;;6.20;;
54241;SDS011;40156;51.080;17.082;2022-08-03T02:42:48;6.68;;;5.15;;
54241;SDS011;40156;51.080;17.082;2022-08-03T02:45:17;9.95;;;5.65;;
54241;SDS011;40156;51.080;17.082;2022-08-03T02:47:46;7.47;;;5.78;;
54241;SDS011;40156;51.080;17.082;2022-08-03T02:50:21;8.52;;;5.72;;
54241;SDS011;40156;51.080;17.082;2022-08-03T02:52:49;9.88;;;5.68;;
54241;SDS011;40156;51.080;17.082;2022-08-03T02:58:59;7.93;;;5.95;;
54241;SDS011;40156;51.080;17.082;2022-08-03T03:01:28;7.55;;;5.80;;
54241;SDS011;40156;51.080;17.082;2022-08-03T03:03:56;10.05;;;6.45;;
54241;SDS011;40156;51.080;17.082;2022-08-03T03:06:24;10.32;;;6.20;;
54241;SDS011;40156;51.080;17.082;2022-08-03T03:08:55;8.43;;;6.30;;
54241;SDS011;40156;51.080;17.082;2022-08-03T03:11:26;10.00;;;6.47;;
54241;SDS011;40156;51.080;17.082;2022-08-03T03:13:54;10.70;;;6.10;;
54241;SDS011;40156;51.080;17.082;2022-08-03T03:16:22;8.15;;;6.25;;
54241;SDS011;40156;51.080;17.082;2022-08-03T03:18:51;8.10;;;6.47;;
54241;SDS011;40156;51.080;17.082;2022-08-03T03:21:19;8.18;;;6.22;;
54241;SDS011;40156;51.080;17.082;2022-08-03T03:23:47;8.77;;;5.72;;
54241;SDS011;40156;51.080;17.082;2022-08-03T03:26:15;8.20;;;6.80;;
54241;SDS011;40156;51.080;17.082;2022-08-03T03:28:43;10.63;;;6.60;;
54241;SDS011;40156;51.080;17.082;2022-08-03T03:31:10;11.07;;;7.07;;
54241;SDS011;40156;51.080;17.082;2022-08-03T03:33:38;11.00;;;6.68;;
54241;SDS011;40156;51.080;17.082;2022-08-03T03:36:06;9.55;;;6.15;;
54241;SDS011;40156;51.080;17.082;2022-08-03T03:38:33;7.93;;;6.43;;
54241;SDS011;40156;51.080;17.082;2022-08-03T03:41:01;9.52;;;6.80;;
54241;SDS011;40156;51.080;17.082;2022-08-03T03:43:28;8.98;;;6.70;;
54241;SDS011;40156;51.080;17.082;2022-08-03T03:45:56;14.35;;;7.30;;
54241;SDS011;40156;51.080;17.082;2022-08-03T03:48:24;9.25;;;6.93;;
54241;SDS011;40156;51.080;17.082;2022-08-03T03:50:52;12.88;;;7.07;;
54241;SDS011;40156;51.080;17.082;2022-08-03T03:53:33;9.70;;;6.35;;
54241;SDS011;40156;51.080;17.082;2022-08-03T03:56:00;8.88;;;7.13;;
54241;SDS011;40156;51.080;17.082;2022-08-03T03:58:30;9.40;;;7.10;;
54241;SDS011;40156;51.080;17.082;2022-08-03T04:00:58;13.00;;;7.03;;
54241;SDS011;40156;51.080;17.082;2022-08-03T04:03:25;9.35;;;6.47;;
54241;SDS011;40156;51.080;17.082;2022-08-03T04:05:53;9.82;;;6.13;;
54241;SDS011;40156;51.080;17.082;2022-08-03T04:08:20;8.88;;;6.63;;
54241;SDS011;40156;51.080;17.082;2022-08-03T04:13:36;14.93;;;8.43;;
54241;SDS011;40156;51.080;17.082;2022-08-03T04:16:04;12.65;;;7.30;;
54241;SDS011;40156;51.080;17.082;2022-08-03T04:18:32;11.70;;;7.95;;
54241;SDS011;40156;51.080;17.082;2022-08-03T04:21:01;11.10;;;7.47;;
54241;SDS011;40156;51.080;17.082;2022-08-03T04:23:30;13.52;;;8.10;;
54241;SDS011;40156;51.080;17.082;2022-08-03T04:26:12;14.77;;;8.25;;
54241;SDS011;40156;51.080;17.082;2022-08-03T04:28:42;11.00;;;7.95;;
54241;SDS011;40156;51.080;17.082;2022-08-03T04:31:11;11.95;;;7.63;;
54241;SDS011;40156;51.080;17.082;2022-08-03T04:33:39;12.02;;;7.53;;
54241;SDS011;40156;51.080;17.082;2022-08-03T04:36:17;12.80;;;8.88;;
54241;SDS011;40156;51.080;17.082;2022-08-03T04:41:33;11.30;;;7.80;;
54241;SDS011;40156;51.080;17.082;2022-08-03T04:44:22;10.88;;;7.13;;
54241;SDS011;40156;51.080;17.082;2022-08-03T04:46:55;13.23;;;8.27;;
54241;SDS011;40156;51.080;17.082;2022-08-03T04:49:23;10.80;;;7.75;;
54241;SDS011;40156;51.080;17.082;2022-08-03T04:51:51;10.95;;;7.10;;
54241;SDS011;40156;51.080;17.082;2022-08-03T04:54:18;14.27;;;8.30;;
54241;SDS011;40156;51.080;17.082;2022-08-03T04:56:46;17.45;;;7.85;;
54241;SDS011;40156;51.080;17.082;2022-08-03T04:59:13;12.30;;;7.50;;
54241;SDS011;40156;51.080;17.082;2022-08-03T05:01:55;10.15;;;7.00;;
54241;SDS011;40156;51.080;17.082;2022-08-03T05:04:41;10.77;;;7.18;;
54241;SDS011;40156;51.080;17.082;2022-08-03T05:07:09;12.98;;;7.20;;
54241;SDS011;40156;51.080;17.082;2022-08-03T05:09:38;11.00;;;7.00;;
54241;SDS011;40156;51.080;17.082;2022-08-03T05:12:19;12.57;;;7.63;;
54241;SDS011;40156;51.080;17.082;2022-08-03T05:14:46;10.50;;;7.25;;
54241;SDS011;40156;51.080;17.082;2022-08-03T05:17:13;9.27;;;7.40;;
54241;SDS011;40156;51.080;17.082;2022-08-03T05:19:41;9.65;;;7.60;;
54241;SDS011;40156;51.080;17.082;2022-08-03T05:22:08;9.32;;;7.05;;
54241;SDS011;40156;51.080;17.082;2022-08-03T05:24:37;10.88;;;6.55;;
54241;SDS011;40156;51.080;17.082;2022-08-03T05:27:04;9.70;;;6.47;;
54241;SDS011;40156;51.080;17.082;2022-08-03T05:29:32;9.40;;;6.65;;
54241;SDS011;40156;51.080;17.082;2022-08-03T05:31:59;8.85;;;6.20;;
54241;SDS011;40156;51.080;17.082;2022-08-03T05:34:34;8.13;;;6.20;;
54241;SDS011;40156;51.080;17.082;2022-08-03T05:37:01;10.13;;;5.13;;
54241;SDS011;40156;51.080;17.082;2022-08-03T05:39:28;7.88;;;5.20;;
54241;SDS011;40156;51.080;17.082;2022-08-03T05:41:56;8.07;;;5.63;;
54241;SDS011;40156;51.080;17.082;2022-08-03T05:44:23;10.73;;;4.85;;
54241;SDS011;40156;51.080;17.082;2022-08-03T05:46:51;6.60;;;5.20;;
54241;SDS011;40156;51.080;17.082;2022-08-03T05:49:18;6.35;;;5.63;;
54241;SDS011;40156;51.080;17.082;2022-08-03T05:51:46;6.80;;;4.50;;
54241;SDS011;40156;51.080;17.082;2022-08-03T05:54:26;6.25;;;4.80;;
54241;SDS011;40156;51.080;17.082;2022-08-03T05:57:13;7.13;;;4.35;;
54241;SDS011;40156;51.080;17.082;2022-08-03T05:59:41;6.95;;;4.50;;
54241;SDS011;40156;51.080;17.082;2022-08-03T06:02:27;6.38;;;4.57;;
54241;SDS011;40156;51.080;17.082;2022-08-03T06:04:54;8.52;;;4.35;;
54241;SDS011;40156;51.080;17.082;2022-08-03T06:07:22;6.70;;;4.40;;
54241;SDS011;40156;51.080;17.082;2022-08-03T06:09:49;6.50;;;3.90;;
54241;SDS011;40156;51.080;17.082;2022-08-03T06:12:37;5.13;;;3.53;;
54241;SDS011;40156;51.080;17.082;2022-08-03T06:15:11;5.20;;;3.45;;
54241;SDS011;40156;51.080;17.082;2022-08-03T06:17:45;5.53;;;3.72;;
54241;SDS011;40156;51.080;17.082;2022-08-03T06:20:27;7.60;;;4.05;;
54241;SDS011;40156;51.080;17.082;2022-08-03T06:22:55;6.90;;;3.80;;
54241;SDS011;40156;51.080;17.082;2022-08-03T06:25:27;4.93;;;3.45;;
54241;SDS011;40156;51.080;17.082;2022-08-03T06:27:54;5.05;;;3.25;;
54241;SDS011;40156;51.080;17.082;2022-08-03T06:30:22;6.05;;;3.65;;
54241;SDS011;40156;51.080;17.082;2022-08-03T06:32:49;8.70;;;3.80;;
54241;SDS011;40156;51.080;17.082;2022-08-03T06:35:18;6.18;;;3.60;;
54241;SDS011;40156;51.080;17.082;2022-08-03T06:37:47;4.38;;;3.38;;
54241;SDS011;40156;51.080;17.082;2022-08-03T06:40:16;4.10;;;3.50;;
54241;SDS011;40156;51.080;17.082;2022-08-03T06:42:50;3.63;;;3.33;;
54241;SDS011;40156;51.080;17.082;2022-08-03T06:48:09;3.28;;;2.90;;
54241;SDS011;40156;51.080;17.082;2022-08-03T06:50:37;4.38;;;3.42;;
54241;SDS011;40156;51.080;17.082;2022-08-03T06:53:06;6.60;;;3.28;;
54241;SDS011;40156;51.080;17.082;2022-08-03T06:55:34;5.00;;;2.95;;
54241;SDS011;40156;51.080;17.082;2022-08-03T06:58:08;5.53;;;2.92;;
54241;SDS011;40156;51.080;17.082;2022-08-03T07:00:36;3.17;;;2.60;;
54241;SDS011;40156;51.080;17.082;2022-08-03T07:03:03;3.67;;;2.92;;
54241;SDS011;40156;51.080;17.082;2022-08-03T07:05:36;5.28;;;2.65;;
54241;SDS011;40156;51.080;17.082;2022-08-03T07:08:03;3.55;;;2.80;;
54241;SDS011;40156;51.080;17.082;2022-08-03T07:10:31;3.67;;;3.13;;
54241;SDS011;40156;51.080;17.082;2022-08-03T07:12:58;3.13;;;2.78;;
54241;SDS011;40156;51.080;17.082;2022-08-03T07:15:26;3.35;;;3.05;;
54241;SDS011;40156;51.080;17.082;2022-08-03T07:18:15;3.70;;;2.90;;
54241;SDS011;40156;51.080;17.082;2022-08-03T07:20:44;3.80;;;2.47;;
54241;SDS011;40156;51.080;17.082;2022-08-03T07:23:11;5.25;;;2.80;;
54241;SDS011;40156;51.080;17.082;2022-08-03T07:25:45;3.78;;;2.60;;
54241;SDS011;40156;51.080;17.082;2022-08-03T07:28:13;8.88;;;2.88;;
54241;SDS011;40156;51.080;17.082;2022-08-03T07:33:12;2.42;;;2.22;;
54241;SDS011;40156;51.080;17.082;2022-08-03T07:35:39;3.10;;;2.65;;
54241;SDS011;40156;51.080;17.082;2022-08-03T07:38:06;2.65;;;2.45;;
54241;SDS011;40156;51.080;17.082;2022-08-03T07:40:34;4.10;;;2.53;;
54241;SDS011;40156;51.080;17.082;2022-08-03T07:43:01;2.40;;;2.25;;
54241;SDS011;40156;51.080;17.082;2022-08-03T07:45:31;3.83;;;2.53;;
54241;SDS011;40156;51.080;17.082;2022-08-03T07:47:59;3.00;;;2.80;;
54241;SDS011;40156;51.080;17.082;2022-08-03T07:50:27;3.33;;;2.42;;
54241;SDS011;40156;51.080;17.082;2022-08-03T07:52:54;4.32;;;2.60;;
54241;SDS011;40156;51.080;17.082;2022-08-03T07:55:22;3.17;;;2.20;;
54241;SDS011;40156;51.080;17.082;2022-08-03T07:58:06;3.88;;;2.30;;
54241;SDS011;40156;51.080;17.082;2022-08-03T08:00:34;4.68;;;2.35;;
54241;SDS011;40156;51.080;17.082;2022-08-03T08:03:02;3.63;;;2.30;;
54241;SDS011;40156;51.080;17.082;2022-08-03T08:05:29;2.53;;;2.33;;
54241;SDS011;40156;51.080;17.082;2022-08-03T08:07:57;2.30;;;2.10;;
54241;SDS011;40156;51.080;17.082;2022-08-03T08:10:24;2.25;;;2.10;;
54241;SDS011;40156;51.080;17.082;2022-08-03T08:12:55;4.90;;;2.10;;
54241;SDS011;40156;51.080;17.082;2022-08-03T08:15:34;4.07;;;2.27;;
54241;SDS011;40156;51.080;17.082;2022-08-03T08:18:08;2.42;;;1.98;;
54241;SDS011;40156;51.080;17.082;2022-08-03T08:23:09;4.00;;;2.10;;
54241;SDS011;40156;51.080;17.082;2022-08-03T08:26:05;2.00;;;1.90;;
54241;SDS011;40156;51.080;17.082;2022-08-03T08:28:32;1.98;;;1.88;;
54241;SDS011;40156;51.080;17.082;2022-08-03T08:31:00;10.52;;;2.50;;
54241;SDS011;40156;51.080;17.082;2022-08-03T08:33:28;4.25;;;2.13;;
54241;SDS011;40156;51.080;17.082;2022-08-03T08:36:15;4.53;;;1.95;;
54241;SDS011;40156;51.080;17.082;2022-08-03T08:38:43;3.13;;;2.00;;
54241;SDS011;40156;51.080;17.082;2022-08-03T08:41:10;3.22;;;2.20;;
54241;SDS011;40156;51.080;17.082;2022-08-03T08:43:38;5.95;;;3.03;;
54241;SDS011;40156;51.080;17.082;2022-08-03T08:46:07;3.10;;;2.30;;
54241;SDS011;40156;51.080;17.082;2022-08-03T08:48:39;2.20;;;2.00;;
54241;SDS011;40156;51.080;17.082;2022-08-03T08:51:08;2.93;;;1.93;;
54241;SDS011;40156;51.080;17.082;2022-08-03T08:53:36;2.28;;;1.90;;
54241;SDS011;40156;51.080;17.082;2022-08-03T08:56:03;2.58;;;2.03;;
54241;SDS011;40156;51.080;17.082;2022-08-03T08:58:36;2.58;;;2.25;;
54241;SDS011;40156;51.080;17.082;2022-08-03T09:01:04;2.05;;;1.90;;
54241;SDS011;40156;51.080;17.082;2022-08-03T09:03:32;2.75;;;2.00;;
54241;SDS011;40156;51.080;17.082;2022-08-03T09:06:00;3.38;;;2.20;;
54241;SDS011;40156;51.080;17.082;2022-08-03T09:08:29;1.98;;;1.88;;
54241;SDS011;40156;51.080;17.082;2022-08-03T09:10:57;2.72;;;2.08;;
54241;SDS011;40156;51.080;17.082;2022-08-03T09:13:24;2.97;;;1.90;;
54241;SDS011;40156;51.080;17.082;2022-08-03T09:18:47;5.40;;;1.80;;
54241;SDS011;40156;51.080;17.082;2022-08-03T09:24:02;2.30;;;2.08;;
54241;SDS011;40156;51.080;17.082;2022-08-03T09:26:33;2.65;;;1.88;;
54241;SDS011;40156;51.080;17.082;2022-08-03T09:29:06;1.88;;;1.77;;
54241;SDS011;40156;51.080;17.082;2022-08-03T09:31:41;3.15;;;1.70;;
54241;SDS011;40156;51.080;17.082;2022-08-03T09:34:11;5.18;;;1.85;;
54241;SDS011;40156;51.080;17.082;2022-08-03T09:36:42;2.30;;;1.65;;
54241;SDS011;40156;51.080;17.082;2022-08-03T09:39:14;2.20;;;2.00;;
54241;SDS011;40156;51.080;17.082;2022-08-03T09:42:26;2.10;;;1.90;;
54241;SDS011;40156;51.080;17.082;2022-08-03T09:44:38;3.05;;;1.77;;
54241;SDS011;40156;51.080;17.082;2022-08-03T09:47:05;2.03;;;1.83;;
54241;SDS011;40156;51.080;17.082;2022-08-03T09:49:33;2.92;;;1.88;;
54241;SDS011;40156;51.080;17.082;2022-08-03T09:52:01;3.25;;;2.10;;
54241;SDS011;40156;51.080;17.082;2022-08-03T09:54:51;2.15;;;2.03;;
54241;SDS011;40156;51.080;17.082;2022-08-03T09:57:23;2.08;;;1.98;;
54241;SDS011;40156;51.080;17.082;2022-08-03T09:59:51;1.92;;;1.83;;
54241;SDS011;40156;51.080;17.082;2022-08-03T10:02:33;2.50;;;2.30;;
54241;SDS011;40156;51.080;17.082;2022-08-03T10:05:01;2.13;;;1.90;;
54241;SDS011;40156;51.080;17.082;2022-08-03T10:07:29;1.80;;;1.58;;
54241;SDS011;40156;51.080;17.082;2022-08-03T10:10:00;3.08;;;1.98;;
54241;SDS011;40156;51.080;17.082;2022-08-03T10:12:48;3.67;;;2.30;;
54241;SDS011;40156;51.080;17.082;2022-08-03T10:15:15;2.17;;;1.83;;
54241;SDS011;40156;51.080;17.082;2022-08-03T10:18:03;1.98;;;1.85;;
54241;SDS011;40156;51.080;17.082;2022-08-03T10:20:30;2.53;;;1.92;;
54241;SDS011;40156;51.080;17.082;2022-08-03T10:22:59;1.85;;;1.73;;
54241;SDS011;40156;51.080;17.082;2022-08-03T10:25:28;2.13;;;1.98;;
54241;SDS011;40156;51.080;17.082;2022-08-03T10:28:00;4.95;;;1.90;;
54241;SDS011;40156;51.080;17.082;2022-08-03T10:30:28;3.67;;;1.80;;
54241;SDS011;40156;51.080;17.082;2022-08-03T10:33:40;2.35;;;1.77;;
54241;SDS011;40156;51.080;17.082;2022-08-03T10:36:07;2.08;;;1.90;;
54241;SDS011;40156;51.080;17.082;2022-08-03T10:38:36;5.30;;;1.90;;
54241;SDS011;40156;51.080;17.082;2022-08-03T10:41:04;2.30;;;1.73;;
54241;SDS011;40156;51.080;17.082;2022-08-03T10:43:33;2.70;;;1.67;;
54241;SDS011;40156;51.080;17.082;2022-08-03T10:46:02;2.03;;;1.92;;
54241;SDS011;40156;51.080;17.082;2022-08-03T10:48:31;1.80;;;1.70;;
54241;SDS011;40156;51.080;17.082;2022-08-03T10:51:06;1.80;;;1.70;;
54241;SDS011;40156;51.080;17.082;2022-08-03T10:53:35;1.80;;;1.70;;
54241;SDS011;40156;51.080;17.082;2022-08-03T10:59:13;1.98;;;1.88;;
54241;SDS011;40156;51.080;17.082;2022-08-03T11:01:55;2.15;;;1.90;;
54241;SDS011;40156;51.080;17.082;2022-08-03T11:04:27;3.38;;;2.00;;
54241;SDS011;40156;51.080;17.082;2022-08-03T11:07:29;4.30;;;1.90;;
54241;SDS011;40156;51.080;17.082;2022-08-03T11:09:53;1.83;;;1.73;;
54241;SDS011;40156;51.080;17.082;2022-08-03T11:12:22;2.20;;;2.00;;
54241;SDS011;40156;51.080;17.082;2022-08-03T11:15:06;2.00;;;1.90;;
54241;SDS011;40156;51.080;17.082;2022-08-03T11:17:34;2.10;;;1.90;;
54241;SDS011;40156;51.080;17.082;2022-08-03T11:23:08;2.08;;;1.95;;
54241;SDS011;40156;51.080;17.082;2022-08-03T11:28:25;2.60;;;1.70;;
54241;SDS011;40156;51.080;17.082;2022-08-03T11:30:53;2.30;;;1.80;;
54241;SDS011;40156;51.080;17.082;2022-08-03T11:33:29;3.00;;;2.00;;
54241;SDS011;40156;51.080;17.082;2022-08-03T11:36:00;2.10;;;1.90;;
54241;SDS011;40156;51.080;17.082;2022-08-03T11:38:28;3.03;;;1.98;;
54241;SDS011;40156;51.080;17.082;2022-08-03T11:40:55;1.83;;;1.60;;
54241;SDS011;40156;51.080;17.082;2022-08-03T11:46:01;1.98;;;1.70;;
54241;SDS011;40156;51.080;17.082;2022-08-03T11:48:35;2.75;;;1.77;;
54241;SDS011;40156;51.080;17.082;2022-08-03T11:51:04;3.72;;;1.83;;
54241;SDS011;40156;51.080;17.082;2022-08-03T11:53:32;1.65;;;1.55;;
54241;SDS011;40156;51.080;17.082;2022-08-03T11:56:08;1.63;;;1.52;;
54241;SDS011;40156;51.080;17.082;2022-08-03T12:01:26;1.88;;;1.70;;
54241;SDS011;40156;51.080;17.082;2022-08-03T12:03:54;2.25;;;1.90;;
54241;SDS011;40156;51.080;17.082;2022-08-03T12:06:21;1.80;;;1.70;;
54241;SDS011;40156;51.080;17.082;2022-08-03T12:08:48;1.52;;;1.42;;
54241;SDS011;40156;51.080;17.082;2022-08-03T12:11:16;1.63;;;1.52;;
54241;SDS011;40156;51.080;17.082;2022-08-03T12:13:44;2.05;;;1.80;;
54241;SDS011;40156;51.080;17.082;2022-08-03T12:16:32;2.45;;;1.65;;
54241;SDS011;40156;51.080;17.082;2022-08-03T12:19:04;1.92;;;1.67;;
54241;SDS011;40156;51.080;17.082;2022-08-03T12:21:31;2.30;;;1.70;;
54241;SDS011;40156;51.080;17.082;2022-08-03T12:24:00;1.65;;;1.55;;
54241;SDS011;40156;51.080;17.082;2022-08-03T12:26:29;2.10;;;1.90;;
54241;SDS011;40156;51.080;17.082;2022-08-03T12:31:34;2.00;;;1.80;;
54241;SDS011;40156;51.080;17.082;2022-08-03T12:34:02;2.00;;;1.80;;
54241;SDS011;40156;51.080;17.082;2022-08-03T12:36:31;2.25;;;1.70;;
54241;SDS011;40156;51.080;17.082;2022-08-03T12:39:05;5.75;;;1.60;;
54241;SDS011;40156;51.080;17.082;2022-08-03T12:41:37;3.05;;;1.55;;
54241;SDS011;40156;51.080;17.082;2022-08-03T12:44:08;2.08;;;1.88;;
54241;SDS011;40156;51.080;17.082;2022-08-03T12:46:36;1.52;;;1.42;;
54241;SDS011;40156;51.080;17.082;2022-08-03T12:49:10;2.78;;;1.65;;
54241;SDS011;40156;51.080;17.082;2022-08-03T12:54:14;4.10;;;1.88;;
54241;SDS011;40156;51.080;17.082;2022-08-03T12:59:32;1.80;;;1.70;;
54241;SDS011;40156;51.080;17.082;2022-08-03T13:02:15;2.85;;;1.80;;
54241;SDS011;40156;51.080;17.082;2022-08-03T13:04:44;5.60;;;1.80;;
54241;SDS011;40156;51.080;17.082;2022-08-03T13:07:12;4.50;;;1.75;;
54241;SDS011;40156;51.080;17.082;2022-08-03T13:12:12;3.15;;;1.60;;
54241;SDS011;40156;51.080;17.082;2022-08-03T13:14:40;2.95;;;1.75;;
54241;SDS011;40156;51.080;17.082;2022-08-03T13:17:08;1.83;;;1.58;;
54241;SDS011;40156;51.080;17.082;2022-08-03T13:19:35;1.77;;;1.60;;
54241;SDS011;40156;51.080;17.082;2022-08-03T13:22:13;3.08;;;1.77;;
54241;SDS011;40156;51.080;17.082;2022-08-03T13:24:40;1.80;;;1.70;;
54241;SDS011;40156;51.080;17.082;2022-08-03T13:27:08;2.50;;;1.52;;
54241;SDS011;40156;51.080;17.082;2022-08-03T13:29:56;1.65;;;1.48;;
54241;SDS011;40156;51.080;17.082;2022-08-03T13:32:23;1.75;;;1.65;;
54241;SDS011;40156;51.080;17.082;2022-08-03T13:34:50;1.83;;;1.70;;
54241;SDS011;40156;51.080;17.082;2022-08-03T13:37:18;1.60;;;1.50;;
54241;SDS011;40156;51.080;17.082;2022-08-03T13:39:46;2.60;;;1.80;;
54241;SDS011;40156;51.080;17.082;2022-08-03T13:42:32;5.07;;;2.40;;
54241;SDS011;40156;51.080;17.082;2022-08-03T13:45:00;1.92;;;1.73;;
54241;SDS011;40156;51.080;17.082;2022-08-03T13:47:28;2.70;;;1.95;;
54241;SDS011;40156;51.080;17.082;2022-08-03T13:49:55;2.45;;;1.63;;
54241;SDS011;40156;51.080;17.082;2022-08-03T13:52:29;2.63;;;1.50;;
54241;SDS011;40156;51.080;17.082;2022-08-03T13:54:56;2.58;;;1.60;;
54241;SDS011;40156;51.080;17.082;2022-08-03T13:57:24;1.65;;;1.55;;
54241;SDS011;40156;51.080;17.082;2022-08-03T14:00:11;2.65;;;1.70;;
54241;SDS011;40156;51.080;17.082;2022-08-03T14:02:52;1.70;;;1.60;;
54241;SDS011;40156;51.080;17.082;2022-08-03T14:05:29;2.33;;;1.42;;
54241;SDS011;40156;51.080;17.082;2022-08-03T14:07:58;1.60;;;1.50;;
54241;SDS011;40156;51.080;17.082;2022-08-03T14:10:32;2.45;;;1.75;;
54241;SDS011;40156;51.080;17.082;2022-08-03T14:12:59;2.67;;;1.50;;
54241;SDS011;40156;51.080;17.082;2022-08-03T14:15:27;1.80;;;1.70;;
54241;SDS011;40156;51.080;17.082;2022-08-03T14:17:54;4.10;;;1.52;;
54241;SDS011;40156;51.080;17.082;2022-08-03T14:20:25;1.80;;;1.70;;
54241;SDS011;40156;51.080;17.082;2022-08-03T14:23:05;4.00;;;1.90;;
54241;SDS011;40156;51.080;17.082;2022-08-03T14:25:33;2.38;;;1.70;;
54241;SDS011;40156;51.080;17.082;2022-08-03T14:28:18;1.85;;;1.75;;
54241;SDS011;40156;51.080;17.082;2022-08-03T14:30:46;1.67;;;1.58;;
54241;SDS011;40156;51.080;17.082;2022-08-03T14:33:13;1.70;;;1.60;;
54241;SDS011;40156;51.080;17.082;2022-08-03T14:35:41;2.20;;;1.75;;
54241;SDS011;40156;51.080;17.082;2022-08-03T14:38:08;2.13;;;1.70;;
54241;SDS011;40156;51.080;17.082;2022-08-03T14:40:36;2.67;;;1.75;;
54241;SDS011;40156;51.080;17.082;2022-08-03T14:43:03;1.83;;;1.52;;
54241;SDS011;40156;51.080;17.082;2022-08-03T14:45:31;2.15;;;1.60;;
54241;SDS011;40156;51.080;17.082;2022-08-03T14:47:58;1.95;;;1.60;;
54241;SDS011;40156;51.080;17.082;2022-08-03T14:50:46;1.80;;;1.70;;
54241;SDS011;40156;51.080;17.082;2022-08-03T14:53:18;1.98;;;1.50;;
54241;SDS011;40156;51.080;17.082;2022-08-03T14:55:45;1.88;;;1.65;;
54241;SDS011;40156;51.080;17.082;2022-08-03T14:58:20;1.70;;;1.60;;
54241;SDS011;40156;51.080;17.082;2022-08-03T15:00:49;2.08;;;1.70;;
54241;SDS011;40156;51.080;17.082;2022-08-03T15:03:20;3.80;;;1.70;;
54241;SDS011;40156;51.080;17.082;2022-08-03T15:05:51;2.75;;;1.70;;
54241;SDS011;40156;51.080;17.082;2022-08-03T15:08:19;1.85;;;1.50;;
54241;SDS011;40156;51.080;17.082;2022-08-03T15:10:47;2.70;;;1.70;;
54241;SDS011;40156;51.080;17.082;2022-08-03T15:13:15;2.15;;;1.95;;
54241;SDS011;40156;51.080;17.082;2022-08-03T15:15:43;3.08;;;1.58;;
54241;SDS011;40156;51.080;17.082;2022-08-03T15:18:10;1.98;;;1.60;;
54241;SDS011;40156;51.080;17.082;2022-08-03T15:20:38;2.08;;;1.60;;
54241;SDS011;40156;51.080;17.082;2022-08-03T15:23:12;2.03;;;1.60;;
54241;SDS011;40156;51.080;17.082;2022-08-03T15:25:40;1.65;;;1.55;;
54241;SDS011;40156;51.080;17.082;2022-08-03T15:28:28;1.30;;;1.20;;
54241;SDS011;40156;51.080;17.082;2022-08-03T15:30:55;3.05;;;1.60;;
54241;SDS011;40156;51.080;17.082;2022-08-03T15:33:23;1.80;;;1.60;;
54241;SDS011;40156;51.080;17.082;2022-08-03T15:35:50;3.67;;;1.58;;
54241;SDS011;40156;51.080;17.082;2022-08-03T15:38:18;1.70;;;1.50;;
54241;SDS011;40156;51.080;17.082;2022-08-03T15:40:45;2.53;;;1.40;;
54241;SDS011;40156;51.080;17.082;2022-08-03T15:43:12;4.15;;;1.58;;
54241;SDS011;40156;51.080;17.082;2022-08-03T15:45:40;1.70;;;1.60;;
54241;SDS011;40156;51.080;17.082;2022-08-03T15:48:08;1.80;;;1.70;;
54241;SDS011;40156;51.080;17.082;2022-08-03T15:50:35;2.17;;;1.75;;
54241;SDS011;40156;51.080;17.082;2022-08-03T15:53:03;1.83;;;1.63;;
54241;SDS011;40156;51.080;17.082;2022-08-03T15:55:30;2.00;;;1.80;;
54241;SDS011;40156;51.080;17.082;2022-08-03T15:57:58;2.92;;;1.60;;
54241;SDS011;40156;51.080;17.082;2022-08-03T16:00:45;2.78;;;1.48;;
54241;SDS011;40156;51.080;17.082;2022-08-03T16:03:13;3.30;;;1.90;;
54241;SDS011;40156;51.080;17.082;2022-08-03T16:05:40;2.67;;;2.08;;